Terminal Aerodrome Forecast
Issued by NWS Grand Forks, ND

Home | Current Version | Previous Version | Graphics & Text | Print | Product List | Glossary On
Versions: 1 2 3 4 5 6 7 8 9 10 11 12 13 14
831
FTUS43 KFGF 201623 AAC
TAFFAR
TAF AMD
KFAR 201623Z 2016/2112 15011KT P6SM OVC007
      TEMPO 2016/2018 SCT009 SCT250
     FM201800 15010KT P6SM SCT250=

USA.gov is the U.S. government's official web portal to all federal, state and local government web resources and services.